createdAt,value
2022-09-27T00:01:45.792Z,20.13
2022-09-27T00:04:12.794Z,21.60
2022-09-27T00:06:41.039Z,21.65
2022-09-27T00:09:08.132Z,21.88
2022-09-27T00:11:38.356Z,21.65
2022-09-27T00:14:06.968Z,21.55
2022-09-27T00:16:36.570Z,23.15
2022-09-27T00:19:06.570Z,22.58
2022-09-27T00:21:34.973Z,23.38
2022-09-27T00:24:02.110Z,24.02
2022-09-27T00:26:29.625Z,22.70
2022-09-27T00:28:56.538Z,24.30
2022-09-27T00:31:31.891Z,23.83
2022-09-27T00:34:01.453Z,23.65
2022-09-27T00:36:29.893Z,24.23
2022-09-27T00:43:50.165Z,25.30
2022-09-27T00:46:31.732Z,24.70
2022-09-27T00:49:14.068Z,25.38
2022-09-27T00:51:43.815Z,25.67
2022-09-27T00:54:45.270Z,25.73
2022-09-27T00:57:12.062Z,26.38
2022-09-27T00:59:44.132Z,26.90
2022-09-27T01:02:11.731Z,27.58
2022-09-27T01:04:39.648Z,26.92
2022-09-27T01:07:06.727Z,27.25
2022-09-27T01:09:34.972Z,27.67
2022-09-27T01:12:17.332Z,27.27
2022-09-27T01:15:18.168Z,27.73
2022-09-27T01:18:20.639Z,27.08
2022-09-27T01:21:10.616Z,26.45
2022-09-27T01:24:29.106Z,27.52
2022-09-27T01:27:37.021Z,27.70
2022-09-27T01:30:33.255Z,27.85
2022-09-27T01:33:14.717Z,26.95
2022-09-27T01:36:00.258Z,27.35
2022-09-27T01:38:39.000Z,27.92
2022-09-27T01:41:36.029Z,28.60
2022-09-27T01:44:35.225Z,28.63
2022-09-27T01:47:23.366Z,29.50
2022-09-27T01:50:06.780Z,28.90
2022-09-27T01:52:43.913Z,29.10
2022-09-27T01:55:14.773Z,29.52
2022-09-27T01:58:37.558Z,29.63
2022-09-27T02:01:06.136Z,29.30
2022-09-27T02:03:39.651Z,30.23
2022-09-27T02:06:39.190Z,30.35
2022-09-27T02:09:39.009Z,30.17
2022-09-27T02:12:23.564Z,29.05
2022-09-27T02:15:05.569Z,29.80
2022-09-27T02:17:42.248Z,28.95
2022-09-27T02:20:41.034Z,28.90
2022-09-27T02:23:31.761Z,28.70
2022-09-27T02:26:26.089Z,29.92
2022-09-27T02:29:07.292Z,28.98
2022-09-27T02:31:42.871Z,29.23
2022-09-27T02:34:18.431Z,28.55
2022-09-27T02:36:45.594Z,28.88
2022-09-27T02:39:12.614Z,29.30
2022-09-27T02:41:40.063Z,28.65
2022-09-27T02:44:11.657Z,28.98
2022-09-27T02:47:06.175Z,28.88
2022-09-27T02:49:45.000Z,29.02
2022-09-27T02:52:52.093Z,29.40
2022-09-27T02:55:32.260Z,28.33
2022-09-27T02:58:36.382Z,28.92
2022-09-27T03:01:45.932Z,29.02
2022-09-27T03:04:51.178Z,28.02
2022-09-27T03:07:18.494Z,29.38
2022-09-27T03:09:51.348Z,29.63
2022-09-27T03:12:28.480Z,28.80
2022-09-27T03:15:00.311Z,30.40
2022-09-27T03:17:54.194Z,30.98
2022-09-27T03:20:32.500Z,31.05
2022-09-27T03:23:07.826Z,31.75
2022-09-27T03:25:35.852Z,33.25
2022-09-27T03:28:03.667Z,33.50
2022-09-27T03:30:31.472Z,33.28
2022-09-27T03:33:00.586Z,33.40
2022-09-27T03:35:48.847Z,33.85
2022-09-27T03:38:16.031Z,34.72
2022-09-27T03:40:43.869Z,33.75
2022-09-27T03:43:11.369Z,34.22
2022-09-27T03:45:38.277Z,33.17
2022-09-27T03:48:08.815Z,33.95
2022-09-27T03:50:35.975Z,33.47
2022-09-27T03:53:02.860Z,32.35
2022-09-27T03:55:30.648Z,32.40
2022-09-27T03:57:57.418Z,31.52
2022-09-27T04:00:25.326Z,32.95
2022-09-27T04:02:52.319Z,33.50
2022-09-27T04:05:26.766Z,32.08
2022-09-27T04:07:57.486Z,33.10
2022-09-27T04:11:08.106Z,32.67
2022-09-27T04:13:35.519Z,31.92
2022-09-27T04:16:03.575Z,31.08
2022-09-27T04:18:55.498Z,32.95
2022-09-27T04:21:41.148Z,30.60
2022-09-27T04:24:11.878Z,32.13
2022-09-27T04:26:44.313Z,31.27
2022-09-27T04:29:13.361Z,31.85
2022-09-27T04:31:47.761Z,31.10
2022-09-27T04:34:50.608Z,32.25
2022-09-27T04:37:23.032Z,34.08
2022-09-27T04:39:53.894Z,33.53
2022-09-27T04:42:20.759Z,33.70
2022-09-27T04:44:47.990Z,33.10
2022-09-27T04:47:14.984Z,32.67
2022-09-27T04:49:42.833Z,33.80
2022-09-27T04:52:09.696Z,35.15
2022-09-27T04:54:36.884Z,34.53
2022-09-27T04:57:12.390Z,33.10
2022-09-27T04:59:41.862Z,33.88
2022-09-27T05:02:10.850Z,33.35
2022-09-27T05:04:50.608Z,34.70
2022-09-27T05:07:26.174Z,33.55
2022-09-27T05:10:30.655Z,35.35
2022-09-27T05:12:57.616Z,34.67
2022-09-27T05:15:24.654Z,36.92
2022-09-27T05:18:11.739Z,37.38
2022-09-27T05:21:01.106Z,37.63
2022-09-27T05:23:35.413Z,37.65
2022-09-27T05:26:07.495Z,37.90
2022-09-27T05:28:35.265Z,36.45
2022-09-27T05:31:02.980Z,38.78
2022-09-27T05:33:33.294Z,38.42
2022-09-27T05:36:24.763Z,37.03
2022-09-27T05:38:52.366Z,37.53
2022-09-27T05:41:55.267Z,38.00
2022-09-27T05:44:22.230Z,39.72
2022-09-27T05:46:56.219Z,38.17
2022-09-27T05:49:23.090Z,38.58
2022-09-27T05:51:49.942Z,38.22
2022-09-27T05:54:16.931Z,38.50
2022-09-27T05:56:45.011Z,37.30
2022-09-27T05:59:21.503Z,36.67
2022-09-27T06:02:12.096Z,35.60
2022-09-27T06:04:58.602Z,35.72
2022-09-27T06:07:46.198Z,34.03
2022-09-27T06:10:20.995Z,33.20
2022-09-27T06:12:47.818Z,32.97
2022-09-27T06:15:39.404Z,32.30
2022-09-27T06:18:10.045Z,31.95
2022-09-27T06:20:39.661Z,30.95
2022-09-27T06:23:18.642Z,29.67
2022-09-27T06:26:10.217Z,29.92
2022-09-27T06:29:10.369Z,30.95
2022-09-27T06:31:45.456Z,35.17
2022-09-27T06:34:33.736Z,28.48
2022-09-27T06:37:00.556Z,26.30
2022-09-27T06:39:29.003Z,26.42
2022-09-27T06:42:14.158Z,26.35
2022-09-27T06:45:03.671Z,24.42
2022-09-27T06:47:52.655Z,24.45
2022-09-27T06:50:49.274Z,24.83
2022-09-27T06:53:19.061Z,25.90
2022-09-27T06:55:45.945Z,24.30
2022-09-27T06:58:38.209Z,23.50
2022-09-27T07:01:29.825Z,22.88
2022-09-27T07:04:33.436Z,23.63
2022-09-27T07:07:00.293Z,23.63
2022-09-27T07:09:33.179Z,24.98
2022-09-27T07:12:02.227Z,24.13
2022-09-27T07:14:30.646Z,24.77
2022-09-27T07:16:57.876Z,23.98
2022-09-27T07:19:33.217Z,23.60
2022-09-27T07:22:03.029Z,25.20
2022-09-27T07:24:34.730Z,25.48
2022-09-27T07:27:05.189Z,28.95
2022-09-27T07:29:39.750Z,24.13
2022-09-27T07:32:12.233Z,26.45
2022-09-27T07:34:39.952Z,25.63
2022-09-27T07:37:08.022Z,25.10
2022-09-27T07:39:38.904Z,24.83
2022-09-27T07:42:06.650Z,24.63
2022-09-27T07:44:37.811Z,26.27
2022-09-27T07:47:21.685Z,25.83
2022-09-27T07:50:20.896Z,24.58
2022-09-27T07:52:55.284Z,27.42
2022-09-27T07:55:34.596Z,25.98
2022-09-27T07:58:13.766Z,26.10
2022-09-27T08:00:42.484Z,25.42
2022-09-27T08:03:15.278Z,25.30
2022-09-27T08:05:47.250Z,25.10
2022-09-27T08:08:16.253Z,25.95
2022-09-27T08:10:47.613Z,26.15
2022-09-27T08:13:20.433Z,25.73
2022-09-27T08:15:52.441Z,25.45
2022-09-27T08:18:22.195Z,25.70
2022-09-27T08:20:59.991Z,26.80
2022-09-27T08:23:30.540Z,27.05
2022-09-27T08:26:12.720Z,27.88
2022-09-27T08:28:51.212Z,27.80
2022-09-27T08:31:21.257Z,27.58
2022-09-27T08:33:52.923Z,29.02
2022-09-27T08:36:21.848Z,29.05
2022-09-27T08:38:52.472Z,27.38
2022-09-27T08:41:49.709Z,28.08
2022-09-27T08:44:28.268Z,28.23
2022-09-27T08:47:16.583Z,28.30
2022-09-27T08:49:56.696Z,28.25
2022-09-27T08:52:34.525Z,27.52
2022-09-27T08:55:17.457Z,27.92
2022-09-27T08:57:49.893Z,27.73
2022-09-27T09:00:17.210Z,27.80
2022-09-27T09:02:45.966Z,27.77
2022-09-27T09:05:30.897Z,26.60
2022-09-27T09:08:30.942Z,26.38
2022-09-27T09:11:35.198Z,26.15
2022-09-27T09:14:38.959Z,25.80
2022-09-27T09:17:46.811Z,25.88
2022-09-27T09:20:52.853Z,24.52
2022-09-27T09:23:33.372Z,26.08
2022-09-27T09:26:15.672Z,25.52
2022-09-27T09:29:12.820Z,25.60
2022-09-27T09:31:57.215Z,23.55
2022-09-27T09:34:27.962Z,24.15
2022-09-27T09:37:18.389Z,23.90
2022-09-27T09:39:53.741Z,23.42
2022-09-27T09:42:32.692Z,22.60
2022-09-27T09:45:19.929Z,23.15
2022-09-27T09:47:55.633Z,23.25
2022-09-27T09:50:35.118Z,22.23
2022-09-27T09:53:14.961Z,22.40
2022-09-27T09:55:51.307Z,22.42
2022-09-27T09:58:51.092Z,22.38
2022-09-27T10:01:34.088Z,21.48
2022-09-27T10:04:03.891Z,22.50
2022-09-27T10:06:31.970Z,22.17
2022-09-27T10:09:01.250Z,22.67
2022-09-27T10:11:45.857Z,22.92
2022-09-27T10:14:27.999Z,21.65
2022-09-27T10:17:03.623Z,22.67
2022-09-27T10:19:34.434Z,22.35
2022-09-27T10:22:18.892Z,20.20
2022-09-27T10:25:02.537Z,20.70
2022-09-27T10:27:46.302Z,21.25
2022-09-27T10:30:28.510Z,20.60
2022-09-27T10:33:00.724Z,21.00
2022-09-27T10:35:53.983Z,22.15
2022-09-27T10:38:34.498Z,22.45
2022-09-27T10:41:26.589Z,22.52
2022-09-27T10:44:20.123Z,23.63
2022-09-27T10:46:55.673Z,24.58
2022-09-27T10:49:42.172Z,25.35
2022-09-27T10:52:29.063Z,25.63
2022-09-27T10:55:25.136Z,25.95
2022-09-27T10:57:56.533Z,26.45
2022-09-27T11:00:27.890Z,26.63
2022-09-27T11:02:59.398Z,25.35
2022-09-27T11:05:40.495Z,24.83
2022-09-27T11:08:19.299Z,24.77
2022-09-27T11:11:21.328Z,25.83
2022-09-27T11:14:07.995Z,25.20
2022-09-27T11:17:00.514Z,26.88
2022-09-27T11:19:58.486Z,25.05
2022-09-27T11:22:58.640Z,26.13
2022-09-27T11:26:17.336Z,24.67
2022-09-27T11:29:11.109Z,25.17
2022-09-27T11:31:58.216Z,24.75
2022-09-27T11:35:06.753Z,24.80
2022-09-27T11:38:03.320Z,25.33
2022-09-27T11:41:03.282Z,25.35
2022-09-27T11:43:41.343Z,25.23
2022-09-27T11:46:26.601Z,26.08
2022-09-27T11:49:15.554Z,26.13
2022-09-27T11:51:44.738Z,25.85
2022-09-27T11:54:33.150Z,26.25
2022-09-27T11:57:13.055Z,25.58
2022-09-27T12:00:20.622Z,25.23
2022-09-27T12:03:42.503Z,24.30
2022-09-27T12:06:54.956Z,26.02
2022-09-27T12:09:39.709Z,25.90
2022-09-27T12:12:18.980Z,25.52
2022-09-27T12:15:07.180Z,24.00
2022-09-27T12:17:46.736Z,23.65
2022-09-27T12:20:31.072Z,23.85
2022-09-27T12:23:24.242Z,23.45
2022-09-27T12:26:14.017Z,23.42
2022-09-27T12:29:32.197Z,23.30
2022-09-27T12:32:24.181Z,22.77
2022-09-27T12:35:26.029Z,23.90
2022-09-27T12:38:17.500Z,22.00
2022-09-27T12:40:49.837Z,21.58
2022-09-27T12:43:29.173Z,20.58
2022-09-27T12:46:45.666Z,20.15
2022-09-27T12:49:13.386Z,19.67
2022-09-27T12:51:51.937Z,18.92
2022-09-27T12:54:44.967Z,20.42
2022-09-27T12:57:30.283Z,18.13
2022-09-27T13:00:17.520Z,18.27
2022-09-27T13:03:22.418Z,17.67
2022-09-27T13:06:26.800Z,19.15
2022-09-27T13:09:37.902Z,17.77
2022-09-27T13:12:11.133Z,16.65
2022-09-27T13:15:21.443Z,16.25
2022-09-27T13:18:06.724Z,15.60
2022-09-27T13:20:49.361Z,15.65
2022-09-27T13:23:53.286Z,15.48
2022-09-27T13:26:50.291Z,15.27
2022-09-27T13:29:29.282Z,15.35
2022-09-27T13:32:11.367Z,14.70
2022-09-27T13:35:25.154Z,14.95
2022-09-27T13:38:02.680Z,14.63
2022-09-27T13:40:34.474Z,14.38
2022-09-27T13:43:23.646Z,14.57
2022-09-27T13:49:21.466Z,14.23
2022-09-27T13:52:37.449Z,13.60
2022-09-27T13:55:48.939Z,13.98
2022-09-27T14:03:10.346Z,13.75
2022-09-27T14:06:06.692Z,13.60
2022-09-27T14:08:47.611Z,12.43
2022-09-27T14:11:23.805Z,12.88
2022-09-27T14:14:26.100Z,13.02
2022-09-27T14:17:01.527Z,12.38
2022-09-27T14:19:29.203Z,12.68
2022-09-27T14:21:58.096Z,12.50
2022-09-27T14:24:37.552Z,13.00
2022-09-27T14:27:27.124Z,12.98
2022-09-27T14:30:32.544Z,12.98
2022-09-27T14:33:36.491Z,15.23
2022-09-27T14:36:35.493Z,13.57
2022-09-27T14:39:02.743Z,13.70
2022-09-27T14:41:39.314Z,13.88
2022-09-27T14:44:19.426Z,13.38
2022-09-27T14:47:08.484Z,13.65
2022-09-27T14:49:55.856Z,13.20
2022-09-27T14:52:32.989Z,12.98
2022-09-27T14:55:07.569Z,13.50
2022-09-27T14:57:36.723Z,13.32
2022-09-27T15:00:34.779Z,13.25
2022-09-27T15:03:04.958Z,13.60
2022-09-27T15:05:36.275Z,14.00
2022-09-27T15:08:06.829Z,13.27
2022-09-27T15:10:41.061Z,13.82
2022-09-27T15:13:16.648Z,14.02
2022-09-27T15:15:51.559Z,13.80
2022-09-27T15:18:50.267Z,13.82
2022-09-27T15:21:46.764Z,14.40
2022-09-27T15:24:37.200Z,14.85
2022-09-27T15:27:15.864Z,14.15
2022-09-27T15:30:00.816Z,14.95
2022-09-27T15:32:36.728Z,15.23
2022-09-27T15:35:11.917Z,14.95
2022-09-27T15:37:40.674Z,16.05
2022-09-27T15:40:21.614Z,16.52
2022-09-27T15:43:03.437Z,16.77
2022-09-27T15:45:35.490Z,16.98
2022-09-27T15:48:19.253Z,16.55
2022-09-27T15:50:49.612Z,16.35
2022-09-27T15:53:34.420Z,17.83
2022-09-27T15:56:07.100Z,16.88
2022-09-27T15:58:35.212Z,17.23
2022-09-27T16:01:12.764Z,17.67
2022-09-27T16:03:47.834Z,18.13
2022-09-27T16:06:18.847Z,16.80
2022-09-27T16:08:49.855Z,17.77
2022-09-27T16:11:25.743Z,17.73
2022-09-27T16:13:56.152Z,17.55
2022-09-27T16:16:25.443Z,18.05
2022-09-27T16:18:56.922Z,17.60
2022-09-27T16:21:34.074Z,19.65
2022-09-27T16:24:21.933Z,18.95
2022-09-27T16:26:55.567Z,17.35
2022-09-27T16:32:18.161Z,16.52
2022-09-27T16:34:51.761Z,16.73
2022-09-27T16:37:26.522Z,16.88
2022-09-27T16:39:57.235Z,16.17
2022-09-27T16:42:30.044Z,16.85
2022-09-27T16:45:06.029Z,16.55
2022-09-27T16:47:42.174Z,16.23
2022-09-27T16:50:34.385Z,17.45
2022-09-27T16:53:04.544Z,17.30
2022-09-27T16:58:21.844Z,17.10
2022-09-27T17:00:51.086Z,16.00
2022-09-27T17:06:06.292Z,16.55
2022-09-27T17:08:34.054Z,16.55
2022-09-27T17:11:01.436Z,16.20
2022-09-27T17:13:28.741Z,16.80
2022-09-27T17:15:56.064Z,16.48
2022-09-27T17:18:23.321Z,17.35
2022-09-27T17:20:50.867Z,16.98
2022-09-27T17:23:18.105Z,16.58
2022-09-27T17:25:47.735Z,16.63
2022-09-27T17:28:15.396Z,17.05
2022-09-27T17:30:45.594Z,17.48
2022-09-27T17:33:13.262Z,17.85
2022-09-27T17:35:40.084Z,16.27
2022-09-27T17:38:11.289Z,16.88
2022-09-27T17:40:49.367Z,16.80
2022-09-27T17:43:16.441Z,17.23
2022-09-27T17:45:44.316Z,17.15
2022-09-27T17:48:31.443Z,17.92
2022-09-27T17:51:03.966Z,18.27
2022-09-27T17:53:35.484Z,18.77
2022-09-27T17:56:05.729Z,18.65
2022-09-27T17:58:33.196Z,19.00
2022-09-27T18:01:07.626Z,18.85
2022-09-27T18:03:37.429Z,18.85
2022-09-27T18:06:09.606Z,19.33
2022-09-27T18:08:39.851Z,19.80
2022-09-27T18:11:13.635Z,20.50
2022-09-27T18:13:44.153Z,20.52
2022-09-27T18:16:23.394Z,21.60
2022-09-27T18:18:51.975Z,23.15
2022-09-27T18:21:23.825Z,23.38
2022-09-27T18:23:53.002Z,23.85
2022-09-27T18:26:29.329Z,24.88
2022-09-27T18:29:01.689Z,25.63
2022-09-27T18:31:29.140Z,26.42
2022-09-27T18:33:56.783Z,25.92
2022-09-27T18:36:32.677Z,26.55
2022-09-27T18:39:20.615Z,26.25
2022-09-27T18:41:54.112Z,25.45
2022-09-27T18:44:23.616Z,25.90
2022-09-27T18:46:52.323Z,24.98
2022-09-27T18:49:25.379Z,23.55
2022-09-27T18:52:01.526Z,23.65
2022-09-27T18:54:28.410Z,22.08
2022-09-27T18:56:55.555Z,21.58
2022-09-27T18:59:26.335Z,21.17
2022-09-27T19:01:53.750Z,22.00
2022-09-27T19:04:25.034Z,20.65
2022-09-27T19:07:03.022Z,20.33
2022-09-27T19:09:32.635Z,20.52
2022-09-27T19:12:04.112Z,22.17
2022-09-27T19:14:31.229Z,21.70
2022-09-27T19:16:58.218Z,21.40
2022-09-27T19:19:28.877Z,22.20
2022-09-27T19:21:56.730Z,21.45
2022-09-27T19:24:30.723Z,20.35
2022-09-27T19:26:57.672Z,20.52
2022-09-27T19:29:42.795Z,19.85
2022-09-27T19:32:26.662Z,20.23
2022-09-27T19:35:02.433Z,19.33
2022-09-27T19:37:29.503Z,20.58
2022-09-27T19:39:59.080Z,19.33
2022-09-27T19:42:27.249Z,19.35
2022-09-27T19:44:55.118Z,19.33
2022-09-27T19:47:22.336Z,19.88
2022-09-27T19:49:49.199Z,19.63
2022-09-27T19:52:16.380Z,19.00
2022-09-27T19:54:43.210Z,18.85
2022-09-27T19:57:10.115Z,17.65
2022-09-27T19:59:36.979Z,18.55
2022-09-27T20:02:04.185Z,18.30
2022-09-27T20:04:31.305Z,17.02
2022-09-27T20:06:59.564Z,17.02
2022-09-27T20:09:27.732Z,17.42
2022-09-27T20:11:55.129Z,16.90
2022-09-27T20:14:22.318Z,16.27
2022-09-27T20:16:50.214Z,16.27
2022-09-27T20:19:17.227Z,16.88
2022-09-27T20:21:45.894Z,16.80
2022-09-27T20:24:12.909Z,16.08
2022-09-27T20:26:40.096Z,17.02
2022-09-27T20:29:07.512Z,17.33
2022-09-27T20:31:56.973Z,16.95
2022-09-27T20:34:31.417Z,16.25
2022-09-27T20:36:59.748Z,16.75
2022-09-27T20:39:27.257Z,15.77
2022-09-27T20:41:55.358Z,16.65
2022-09-27T20:44:22.219Z,17.30
2022-09-27T20:46:49.756Z,16.85
2022-09-27T20:49:18.648Z,18.60
2022-09-27T20:51:49.168Z,16.88
2022-09-27T20:54:15.952Z,17.73
2022-09-27T20:56:46.190Z,18.58
2022-09-27T20:59:19.164Z,18.08
2022-09-27T21:01:50.650Z,18.33
2022-09-27T21:04:25.723Z,17.48
2022-09-27T21:06:58.255Z,18.67
2022-09-27T21:09:32.431Z,18.42
2022-09-27T21:12:02.847Z,18.70
2022-09-27T21:14:38.694Z,19.23
2022-09-27T21:17:08.553Z,17.88
2022-09-27T21:19:35.315Z,17.58
2022-09-27T21:22:04.103Z,17.38
2022-09-27T21:24:31.271Z,17.75
2022-09-27T21:26:58.736Z,17.65
2022-09-27T21:29:25.535Z,18.15
2022-09-27T21:31:52.449Z,17.83
2022-09-27T21:34:19.476Z,17.90
2022-09-27T21:36:49.675Z,18.42
2022-09-27T21:39:16.974Z,18.75
2022-09-27T21:41:43.794Z,18.42
2022-09-27T21:44:13.629Z,19.80
2022-09-27T21:46:41.958Z,18.17
2022-09-27T21:49:09.216Z,17.60
2022-09-27T21:51:43.524Z,16.65
2022-09-27T21:54:16.667Z,16.23
2022-09-27T21:56:44.507Z,17.38
